Time;durP1;ratioP1;P1;durP2;ratioP2;P2;SDS_P1;SDS_P2;PMS_P1;PMS_P2;Temp;Humidity;BMP_temperature;BMP_pressure;BME280_temperature;BME280_humidity;BME280_pressure;Samples;Min_cycle;Max_cycle;Signal;HPM_P1;HPM_P2
2023/02/18 00:03:28;;;;;;;1.85;0.93;;;;;;;9.62;85.16;98011.38;10469465;28;20045;-75
2023/02/18 00:08:49;;;;;;;1.50;0.70;;;;;;;9.56;85.30;98013.72;10468917;28;20052;-75
2023/02/18 00:14:12;;;;;;;1.92;0.82;;;;;;;9.46;85.88;98025.56;10468985;28;20040;-74
2023/02/18 00:19:33;;;;;;;1.23;0.80;;;;;;;9.39;86.37;98020.13;10455365;28;20044;-74
2023/02/18 00:24:54;;;;;;;0.98;0.70;;;;;;;9.32;86.63;98023.75;10452338;28;20120;-75
2023/02/18 00:30:15;;;;;;;0.70;0.57;;;;;;;9.41;86.86;98025.84;10462214;28;20040;-75
2023/02/18 00:35:36;;;;;;;1.40;0.70;;;;;;;9.54;86.70;98041.41;10465080;28;20036;-75
2023/02/18 00:40:57;;;;;;;1.00;0.60;;;;;;;9.55;86.99;98034.53;10465197;28;20051;-75
2023/02/18 00:46:19;;;;;;;4.72;0.77;;;;;;;9.52;87.49;98036.44;10453694;28;20057;-75
2023/02/18 00:51:40;;;;;;;1.00;0.68;;;;;;;9.59;87.44;98037.63;10456855;28;20086;-75
2023/02/18 00:57:01;;;;;;;1.80;0.60;;;;;;;9.61;87.08;98041.31;10486278;28;20086;-74
2023/02/18 01:02:21;;;;;;;1.30;0.50;;;;;;;9.63;86.47;98029.56;10472287;28;20063;-75
2023/02/18 01:07:42;;;;;;;2.00;0.52;;;;;;;9.59;85.70;98023.69;10470597;28;20464;-75
2023/02/18 01:13:03;;;;;;;1.75;0.60;;;;;;;9.52;85.68;98018.97;10466800;28;20437;-75
2023/02/18 01:18:24;;;;;;;1.75;0.65;;;;;;;9.42;85.46;98019.69;10453027;28;20043;-74
2023/02/18 01:23:45;;;;;;;2.83;0.90;;;;;;;9.38;85.25;98016.59;10454878;28;20525;-74
2023/02/18 01:29:09;;;;;;;1.67;0.73;;;;;;;9.37;84.49;98025.53;10458465;28;20036;-76
2023/02/18 01:34:30;;;;;;;1.73;0.82;;;;;;;9.38;83.68;98027.75;10470710;28;20115;-74
2023/02/18 01:39:52;;;;;;;2.42;0.70;;;;;;;9.35;83.20;98031.66;10475740;28;20048;-74
2023/02/18 01:45:37;;;;;;;1.52;0.70;;;;;;;9.33;83.44;98033.56;10460912;28;20041;-74
2023/02/18 01:51:12;;;;;;;2.25;0.93;;;;;;;9.34;82.85;98032.97;10488056;28;20379;-74
2023/02/18 01:56:41;;;;;;;3.80;0.80;;;;;;;9.45;83.14;98029.66;10474478;28;20056;-74
2023/02/18 02:02:02;;;;;;;2.97;0.80;;;;;;;9.51;82.46;98034.97;10446501;28;20059;-74
2023/02/18 02:07:23;;;;;;;2.15;0.88;;;;;;;9.64;81.33;98036.63;10460255;28;20048;-74
2023/02/18 02:12:50;;;;;;;;;;;;;;;9.71;79.58;98036.50;10463823;28;20047;-74
2023/02/18 02:18:55;;;;;;;4.33;1.47;;;;;;;9.75;80.24;98036.81;10503677;28;19924;-74
2023/02/18 02:24:38;;;;;;;1.58;1.02;;;;;;;9.67;79.82;98022.25;10432637;28;20063;-74
2023/02/18 02:30:11;;;;;;;1.52;1.08;;;;;;;9.63;79.66;98005.22;10472665;28;20113;-74
2023/02/18 02:35:46;;;;;;;2.95;1.23;;;;;;;9.59;79.08;98001.41;10456432;28;20087;-74
2023/02/18 02:41:17;;;;;;;2.22;1.40;;;;;;;9.51;79.18;98006.38;10472568;28;20448;-74
2023/02/18 02:46:43;;;;;;;3.42;1.30;;;;;;;9.56;79.18;97997.00;10472073;28;20102;-73
2023/02/18 02:52:32;;;;;;;5.40;1.33;;;;;;;9.57;78.15;98006.84;10458727;28;20046;-74
2023/02/18 02:57:54;;;;;;;2.58;1.02;;;;;;;9.62;78.44;98011.38;10498918;28;20375;-74
2023/02/18 03:03:37;;;;;;;3.72;1.70;;;;;;;9.62;78.31;98014.16;10457297;28;20048;-74
2023/02/18 03:09:09;;;;;;;;;;;;;;;9.53;77.90;98018.41;10468731;28;20055;-74
2023/02/18 03:14:49;;;;;;;3.35;1.58;;;;;;;9.56;77.92;98025.63;10465345;28;20123;-74
2023/02/18 03:20:22;;;;;;;3.95;1.70;;;;;;;9.64;77.83;98022.69;10452397;28;20501;-75
2023/02/18 03:25:43;;;;;;;4.43;1.30;;;;;;;9.69;77.47;98008.47;10466933;28;20048;-74
2023/02/18 03:31:08;;;;;;;2.53;1.48;;;;;;;9.73;77.63;98002.47;10456769;28;20367;-74
2023/02/18 03:36:31;;;;;;;1.58;1.00;;;;;;;9.61;76.99;98005.06;10456919;28;20045;-74
2023/02/18 03:41:52;;;;;;;2.72;1.35;;;;;;;9.52;76.82;98005.78;10443377;28;20067;-74
2023/02/18 03:47:13;;;;;;;2.78;1.58;;;;;;;9.53;76.50;98012.09;10456156;28;20075;-74
2023/02/18 03:52:35;;;;;;;1.58;1.05;;;;;;;9.62;76.13;98008.59;10456065;28;20486;-74
2023/02/18 03:57:56;;;;;;;1.55;0.85;;;;;;;9.63;76.28;98004.50;10483504;28;20521;-74
2023/02/18 04:03:17;;;;;;;2.70;1.10;;;;;;;9.65;76.16;98018.56;10468926;28;20486;-74
2023/02/18 04:08:38;;;;;;;2.15;1.17;;;;;;;9.68;75.79;98003.47;10455665;28;20060;-74
2023/02/18 04:13:58;;;;;;;1.25;0.80;;;;;;;9.65;75.82;98018.56;10455132;28;20394;-74
2023/02/18 04:19:19;;;;;;;3.53;1.00;;;;;;;9.64;75.11;98011.53;10455241;28;20041;-74
2023/02/18 04:24:40;;;;;;;1.58;0.75;;;;;;;9.65;75.11;98001.84;10468843;28;20060;-74
2023/02/18 04:30:02;;;;;;;2.97;1.00;;;;;;;9.69;75.30;98007.75;10469292;28;20040;-75
2023/02/18 04:35:24;;;;;;;2.00;0.90;;;;;;;9.70;75.08;98009.22;10469202;28;20170;-75
2023/02/18 04:40:45;;;;;;;2.70;1.20;;;;;;;9.71;74.58;98002.31;10454805;28;20045;-75
2023/02/18 04:46:06;;;;;;;2.05;0.95;;;;;;;9.69;74.50;97988.97;10454984;28;20123;-75
2023/02/18 04:51:28;;;;;;;2.10;1.00;;;;;;;9.71;74.81;98005.09;10467651;28;20530;-75
2023/02/18 04:56:48;;;;;;;1.92;0.90;;;;;;;9.70;73.70;98023.16;10443071;28;20075;-74
2023/02/18 05:02:09;;;;;;;3.50;0.90;;;;;;;9.67;73.81;98004.81;10465122;28;20056;-74
2023/02/18 05:07:30;;;;;;;1.40;0.70;;;;;;;9.69;73.96;98018.88;10425300;28;20066;-74
2023/02/18 05:12:51;;;;;;;4.57;0.80;;;;;;;9.64;73.95;98017.09;10427233;28;20063;-75
2023/02/18 05:18:12;;;;;;;1.70;0.55;;;;;;;9.65;73.84;98018.56;10428402;28;20094;-75
2023/02/18 05:23:33;;;;;;;3.22;0.82;;;;;;;9.62;73.65;98014.16;10427568;28;20090;-75
2023/02/18 05:28:56;;;;;;;1.58;0.70;;;;;;;9.64;73.56;98017.09;10413133;28;20052;-75
2023/02/18 05:34:17;;;;;;;2.25;0.70;;;;;;;9.67;73.41;98024.31;10417930;28;20112;-74
2023/02/18 05:39:39;;;;;;;2.05;0.90;;;;;;;9.68;73.13;98015.38;10443166;28;20470;-75
2023/02/18 05:45:00;;;;;;;1.85;0.85;;;;;;;9.72;73.08;98007.31;10461188;28;20052;-74
2023/02/18 05:50:21;;;;;;;3.17;1.00;;;;;;;9.74;72.85;98004.66;10446882;28;20040;-75
2023/02/18 05:55:41;;;;;;;3.60;0.68;;;;;;;9.78;72.38;98011.88;10474826;28;20056;-75
2023/02/18 06:01:03;;;;;;;2.53;0.80;;;;;;;9.81;72.40;98002.34;10476403;28;20101;-75
2023/02/18 06:06:26;;;;;;;2.03;0.80;;;;;;;9.81;72.09;97996.75;10461915;28;20051;-75
2023/02/18 06:11:46;;;;;;;2.22;0.70;;;;;;;9.82;71.96;98006.59;10457937;28;20102;-74
2023/02/18 06:17:08;;;;;;;2.63;0.75;;;;;;;9.81;71.77;97994.69;10473583;28;20044;-75
2023/02/18 06:22:29;;;;;;;1.77;0.70;;;;;;;9.83;72.02;98005.25;10460186;28;20506;-74
2023/02/18 06:27:50;;;;;;;3.13;0.80;;;;;;;9.82;71.80;98001.75;10460383;28;20044;-74
2023/02/18 06:33:11;;;;;;;2.22;0.82;;;;;;;9.89;71.70;97994.56;10458812;28;20041;-74
2023/02/18 06:38:34;;;;;;;1.75;0.50;;;;;;;9.93;71.29;97997.66;10472753;28;20045;-74
2023/02/18 06:43:55;;;;;;;1.10;0.65;;;;;;;9.95;71.20;97983.88;10457387;28;20048;-75
2023/02/18 06:49:16;;;;;;;2.28;0.40;;;;;;;9.97;71.29;97987.53;10472434;28;20056;-75
2023/02/18 06:54:37;;;;;;;1.60;0.50;;;;;;;10.03;70.86;97978.88;10448724;28;20067;-75
2023/02/18 06:59:58;;;;;;;3.58;1.60;;;;;;;10.14;70.59;97983.16;10462797;28;20037;-77
2023/02/18 07:05:19;;;;;;;3.92;1.30;;;;;;;10.22;70.09;97983.75;10470693;28;20057;-74
2023/02/18 07:10:40;;;;;;;1.73;0.90;;;;;;;10.27;70.30;97986.25;10444126;28;20117;-74
2023/02/18 07:16:01;;;;;;;1.73;1.00;;;;;;;10.38;70.01;97968.19;10444040;28;20045;-75
2023/02/18 07:21:22;;;;;;;2.47;1.00;;;;;;;10.50;69.57;97948.78;10443599;28;20083;-72
2023/02/18 07:26:43;;;;;;;3.72;1.13;;;;;;;10.72;69.29;97950.38;10443344;28;20045;-74
2023/02/18 07:32:04;;;;;;;1.42;0.50;;;;;;;11.06;68.76;97940.09;10457114;28;20045;-74
2023/02/18 07:37:25;;;;;;;1.33;0.40;;;;;;;11.53;66.96;97930.00;10433497;28;20041;-74
2023/02/18 07:42:46;;;;;;;1.30;0.60;;;;;;;11.66;66.35;97923.16;10457086;28;20487;-74
2023/02/18 07:48:07;;;;;;;2.40;0.65;;;;;;;11.50;66.58;97928.44;10442742;28;20098;-74
2023/02/18 07:53:28;;;;;;;3.15;0.52;;;;;;;11.47;66.47;97941.50;10442758;28;20446;-74
2023/02/18 07:58:49;;;;;;;1.25;0.40;;;;;;;11.42;66.81;97944.66;10442302;28;20443;-75
2023/02/18 08:04:10;;;;;;;1.50;0.50;;;;;;;11.46;66.82;97956.81;10429073;28;20126;-75
2023/02/18 08:09:31;;;;;;;1.00;0.50;;;;;;;11.60;66.36;97936.75;10414734;28;20529;-75
2023/02/18 08:14:52;;;;;;;1.40;0.57;;;;;;;11.79;66.37;97945.00;10414740;28;20041;-74
2023/02/18 08:20:13;;;;;;;1.02;0.40;;;;;;;12.31;65.31;97933.72;10441669;28;20044;-75
2023/02/18 08:25:34;;;;;;;1.48;0.40;;;;;;;12.59;64.25;97928.44;10415026;28;20037;-75
2023/02/18 08:30:55;;;;;;;1.05;0.30;;;;;;;12.92;63.46;97917.16;10414642;28;20037;-75
2023/02/18 08:36:17;;;;;;;0.40;0.20;;;;;;;13.05;63.66;97913.03;10414643;28;20102;-75
2023/02/18 08:41:38;;;;;;;0.73;0.30;;;;;;;13.12;63.01;97909.25;10414848;28;20045;-75
2023/02/18 08:46:59;;;;;;;1.27;0.25;;;;;;;13.00;62.70;97909.25;10428202;28;20041;-74
2023/02/18 08:52:20;;;;;;;0.45;0.25;;;;;;;12.80;63.15;97894.75;10413586;28;20037;-74
2023/02/18 08:57:41;;;;;;;0.85;0.30;;;;;;;12.98;62.89;97888.78;10413320;28;20494;-74
2023/02/18 09:03:02;;;;;;;0.70;0.20;;;;;;;13.44;61.85;97876.84;10427090;28;20475;-73
2023/02/18 09:08:23;;;;;;;0.82;0.20;;;;;;;13.42;61.56;97880.28;10417213;28;20045;-75
2023/02/18 09:13:44;;;;;;;1.13;0.25;;;;;;;13.28;61.93;97882.22;10421010;28;20468;-74
2023/02/18 09:19:05;;;;;;;0.38;0.20;;;;;;;13.61;61.95;97879.25;10434574;28;20048;-74
2023/02/18 09:24:26;;;;;;;1.10;0.20;;;;;;;14.38;60.87;97879.28;10434340;28;20372;-73
2023/02/18 09:29:48;;;;;;;0.88;0.17;;;;;;;13.88;60.38;97873.06;10420556;28;20041;-73
2023/02/18 09:35:09;;;;;;;0.65;0.30;;;;;;;13.37;61.08;97872.94;10434071;28;20102;-74
2023/02/18 09:40:31;;;;;;;0.45;0.20;;;;;;;13.23;61.78;97869.31;10420032;28;20041;-71
2023/02/18 09:45:52;;;;;;;1.65;0.20;;;;;;;13.03;61.84;97857.63;10433684;28;20048;-74
2023/02/18 09:51:14;;;;;;;0.65;0.20;;;;;;;12.58;62.94;97854.91;10433472;28;20063;-74
2023/02/18 09:56:35;;;;;;;0.63;0.20;;;;;;;12.54;63.82;97825.91;10419464;28;20052;-74
2023/02/18 10:01:56;;;;;;;0.93;0.20;;;;;;;12.94;63.53;97826.94;10432776;28;20082;-74
2023/02/18 10:07:25;;;;;;;1.52;0.17;;;;;;;13.26;62.66;97822.50;10437357;28;20495;-74
2023/02/18 10:12:48;;;;;;;0.80;0.20;;;;;;;13.37;62.78;97814.06;10475068;28;20498;-74
2023/02/18 10:18:35;;;;;;;2.45;0.43;;;;;;;13.69;62.08;97797.63;10459482;28;20086;-72
2023/02/18 10:24:04;;;;;;;0.55;0.15;;;;;;;13.98;61.90;97775.41;10461769;28;20060;-74
2023/02/18 10:29:25;;;;;;;0.60;0.50;;;;;;;13.79;61.74;97761.72;10446873;28;20501;-75
2023/02/18 10:34:49;;;;;;;2.25;0.10;;;;;;;13.47;63.97;97755.03;10446087;28;20040;-74
2023/02/18 10:40:30;;;;;;;0.55;0.10;;;;;;;13.23;65.05;97740.38;10448307;28;20048;-74
2023/02/18 10:45:58;;;;;;;0.25;0.10;;;;;;;13.09;65.83;97731.13;10476020;28;20048;-75
2023/02/18 10:51:25;;;;;;;0.60;0.17;;;;;;;13.48;64.93;97736.88;10502138;28;20032;-75
2023/02/18 10:56:47;;;;;;;0.40;0.20;;;;;;;14.12;64.35;97710.16;10458779;28;20508;-74
2023/02/18 11:02:15;;;;;;;0.52;0.20;;;;;;;14.85;61.79;97711.88;10474544;28;20057;-77
2023/02/18 11:07:36;;;;;;;0.65;0.30;;;;;;;14.94;61.00;97704.56;10494355;28;20085;-75
2023/02/18 11:13:00;;;;;;;1.17;0.47;;;;;;;14.95;59.58;97683.53;10472707;28;20048;-74
2023/02/18 11:18:24;;;;;;;;;;;;;;;14.66;58.69;97691.91;10453859;28;20131;-77
2023/02/18 11:23:49;;;;;;;;;;;;;;;14.85;58.33;97694.28;10497430;28;19921;-75
2023/02/18 11:29:18;;;;;;;1.95;1.23;;;;;;;15.36;57.01;97671.47;10470948;28;19920;-77
2023/02/18 11:34:41;;;;;;;2.88;1.20;;;;;;;15.41;55.12;97664.66;10476220;28;20395;-77
2023/02/18 11:40:03;;;;;;;1.90;1.40;;;;;;;14.94;55.17;97636.41;10446852;28;20036;-77
2023/02/18 11:45:29;;;;;;;2.30;1.70;;;;;;;15.47;54.44;97667.78;10458138;28;20044;-77
2023/02/18 11:50:50;;;;;;;2.53;1.83;;;;;;;15.79;53.79;97657.31;10476979;28;20070;-77
2023/02/18 11:56:19;;;;;;;2.50;1.73;;;;;;;15.17;52.70;97648.09;10474879;28;20094;-75
2023/02/18 12:01:49;;;;;;;2.50;1.85;;;;;;;14.52;53.19;97616.81;10471811;28;20059;-76
2023/02/18 12:07:39;;;;;;;4.65;2.10;;;;;;;14.22;53.75;97635.63;10445345;28;20051;-75
2023/02/18 12:13:14;;;;;;;2.58;2.10;;;;;;;14.13;54.44;97605.69;10464451;28;20505;-77
2023/02/18 12:18:50;;;;;;;3.92;2.20;;;;;;;14.32;53.75;97610.88;10463030;28;20048;-77
2023/02/18 12:24:28;;;;;;;3.75;2.35;;;;;;;14.48;53.43;97615.91;10482687;28;20048;-75
2023/02/18 12:30:14;;;;;;;2.92;2.28;;;;;;;14.41;52.87;97605.69;10468629;28;20131;-76
2023/02/18 12:35:50;;;;;;;4.13;2.33;;;;;;;14.25;52.41;97599.97;10490083;28;20040;-75
2023/02/18 12:41:30;;;;;;;3.30;2.63;;;;;;;14.18;51.41;97612.22;10455448;28;20070;-75
2023/02/18 12:47:31;;;;;;;3.13;2.30;;;;;;;14.12;50.99;97590.22;10490857;28;20041;-75
2023/02/18 12:53:00;;;;;;;3.42;2.40;;;;;;;14.11;50.59;97582.41;10490517;28;20071;-74
2023/02/18 12:58:25;;;;;;;4.00;2.53;;;;;;;14.07;50.05;97559.75;10491024;28;20055;-77
2023/02/18 13:04:13;;;;;;;3.83;2.35;;;;;;;14.09;49.54;97579.47;10492863;28;20049;-77
2023/02/18 13:10:08;;;;;;;3.42;2.38;;;;;;;13.91;49.40;97559.66;10487345;28;20060;-77
2023/02/18 13:15:40;;;;;;;3.00;2.15;;;;;;;13.63;49.54;97561.72;10469165;28;20494;-77
2023/02/18 13:21:12;;;;;;;3.25;2.30;;;;;;;13.62;49.79;97549.75;10455725;28;20106;-77
2023/02/18 13:26:33;;;;;;;5.15;2.30;;;;;;;13.82;49.70;97552.91;10454618;28;20053;-77
2023/02/18 13:32:23;;;;;;;3.63;2.47;;;;;;;13.96;49.74;97556.41;10469472;28;20044;-77
2023/02/18 13:37:44;;;;;;;2.85;2.22;;;;;;;14.19;49.33;97555.50;10468854;28;20410;-77
2023/02/18 13:43:27;;;;;;;2.92;2.05;;;;;;;14.51;48.31;97552.84;10470328;28;20560;-77
2023/02/18 13:48:50;;;;;;;4.00;2.50;;;;;;;14.38;47.69;97529.03;10453884;28;20396;-77
2023/02/18 13:54:17;;;;;;;3.85;2.42;;;;;;;14.08;47.60;97525.44;10438224;28;20037;-77
2023/02/18 13:59:58;;;;;;;3.38;1.98;;;;;;;13.93;47.83;97532.41;10455576;28;20049;-77
2023/02/18 14:05:20;;;;;;;3.42;1.90;;;;;;;13.88;47.84;97532.81;10466407;28;20060;-76
2023/02/18 14:10:41;;;;;;;3.38;2.28;;;;;;;13.84;46.97;97530.56;10437936;28;20045;-77
2023/02/18 14:16:02;;;;;;;3.47;1.98;;;;;;;13.58;47.51;97523.56;10432411;28;20090;-75
2023/02/18 14:21:35;;;;;;;7.38;2.25;;;;;;;13.43;47.65;97545.28;10446420;28;20083;-75
2023/02/18 14:26:56;;;;;;;2.77;2.00;;;;;;;13.32;47.99;97518.06;10446105;28;20064;-75
2023/02/18 14:32:18;;;;;;;4.07;2.60;;;;;;;13.25;47.77;97513.47;10432087;28;20049;-75
2023/02/18 14:37:51;;;;;;;3.00;2.13;;;;;;;13.19;48.00;97493.50;10431872;28;20048;-75
2023/02/18 14:43:39;;;;;;;2.85;2.13;;;;;;;13.16;48.19;97506.66;10445048;28;20099;-75
2023/02/18 14:49:12;;;;;;;3.15;2.40;;;;;;;13.10;48.48;97497.94;10458843;28;20049;-75
2023/02/18 14:54:33;;;;;;;3.23;2.47;;;;;;;12.92;48.64;97510.22;10458585;28;20041;-75
2023/02/18 14:59:58;;;;;;;5.32;2.80;;;;;;;12.75;49.26;97517.03;10444712;28;20045;-74
2023/02/18 15:05:20;;;;;;;3.80;2.67;;;;;;;12.65;49.65;97536.78;10442971;28;20075;-75
2023/02/18 15:10:55;;;;;;;3.63;2.33;;;;;;;12.51;49.96;97538.78;10432257;28;20380;-76
2023/02/18 15:16:25;;;;;;;2.33;1.63;;;;;;;12.45;50.41;97563.63;10433199;28;20041;-75
2023/02/18 15:21:48;;;;;;;2.75;1.90;;;;;;;12.32;51.02;97565.72;10482243;28;20045;-75
2023/02/18 15:27:20;;;;;;;2.90;1.67;;;;;;;12.25;51.29;97569.50;10480820;28;20048;-74
2023/02/18 15:32:44;;;;;;;2.10;1.40;;;;;;;12.22;51.65;97534.34;10485051;28;20036;-74
2023/02/18 15:38:05;;;;;;;2.80;1.48;;;;;;;12.12;51.86;97563.81;10471068;28;20044;-75
2023/02/18 15:43:26;;;;;;;2.00;1.30;;;;;;;12.02;52.39;97570.28;10461520;28;20049;-77
2023/02/18 15:48:50;;;;;;;2.27;1.60;;;;;;;11.95;53.11;97570.53;10498286;28;20037;-74
2023/02/18 15:54:17;;;;;;;3.92;1.83;;;;;;;11.84;53.39;97579.66;10470347;28;20107;-74
2023/02/18 15:59:46;;;;;;;2.50;1.20;;;;;;;11.78;54.04;97593.25;10470946;28;20060;-74
2023/02/18 16:05:13;;;;;;;1.92;1.00;;;;;;;11.70;54.02;97618.66;10461262;28;20053;-76
2023/02/18 16:10:41;;;;;;;2.03;1.20;;;;;;;11.64;54.44;97602.22;10444798;28;20445;-72
2023/02/18 16:16:02;;;;;;;2.13;0.80;;;;;;;11.56;54.34;97606.59;10457638;28;20041;-75
2023/02/18 16:21:29;;;;;;;1.98;0.88;;;;;;;11.50;54.87;97623.75;10442503;28;20041;-74
2023/02/18 16:26:52;;;;;;;1.83;0.75;;;;;;;11.44;55.14;97617.75;10455427;28;20045;-73
2023/02/18 16:32:13;;;;;;;1.20;0.45;;;;;;;11.41;54.99;97621.78;10441451;28;20442;-74
2023/02/18 16:37:37;;;;;;;1.58;0.43;;;;;;;11.34;55.17;97637.44;10487433;28;20051;-74
2023/02/18 16:43:08;;;;;;;0.63;0.30;;;;;;;11.24;55.56;97644.44;10493521;28;20048;-73
2023/02/18 16:48:39;;;;;;;2.40;0.30;;;;;;;11.09;55.78;97659.56;10463539;28;20122;-74
2023/02/18 16:54:00;;;;;;;0.60;0.30;;;;;;;10.91;56.30;97647.97;10440985;28;20430;-74
2023/02/18 16:59:21;;;;;;;0.40;0.10;;;;;;;10.86;56.94;97666.50;10483648;28;20052;-75
2023/02/18 17:04:42;;;;;;;2.20;0.52;;;;;;;10.95;57.37;97681.72;10484311;28;20064;-77
2023/02/18 17:10:04;;;;;;;0.93;0.32;;;;;;;10.96;57.45;97679.66;10498473;28;20490;-76
2023/02/18 17:15:28;;;;;;;0.50;0.20;;;;;;;10.93;57.74;97723.50;10497375;28;20098;-74
2023/02/18 17:20:51;;;;;;;0.47;0.20;;;;;;;10.82;57.76;97690.66;10482185;28;20090;-76
2023/02/18 17:26:26;;;;;;;0.55;0.10;;;;;;;10.58;59.02;97689.78;10467700;28;20394;-74
2023/02/18 17:31:47;;;;;;;1.50;0.50;;;;;;;10.37;59.67;97695.34;10475976;28;20101;-75
2023/02/18 17:37:12;;;;;;;2.25;0.70;;;;;;;10.20;59.78;97691.41;10489676;28;20044;-75
2023/02/18 17:42:34;;;;;;;2.03;0.52;;;;;;;10.10;59.99;97709.50;10503447;28;20102;-75
2023/02/18 17:47:56;;;;;;;2.38;0.47;;;;;;;9.99;60.22;97705.31;10488879;28;20122;-74
2023/02/18 17:53:16;;;;;;;1.15;0.50;;;;;;;9.92;60.90;97720.88;10474802;28;20079;-75
2023/02/18 17:58:38;;;;;;;1.02;0.30;;;;;;;9.88;61.83;97734.53;10469051;28;20078;-73
2023/02/18 18:03:59;;;;;;;1.73;0.43;;;;;;;9.86;62.03;97742.78;10459012;28;20494;-75
2023/02/18 18:09:19;;;;;;;1.10;0.30;;;;;;;9.87;61.62;97741.44;10432674;28;20048;-75
2023/02/18 18:14:40;;;;;;;0.70;0.30;;;;;;;9.86;62.43;97733.69;10419149;28;20406;-75
2023/02/18 18:20:01;;;;;;;1.52;0.70;;;;;;;9.86;62.52;97753.91;10418604;28;20396;-74
2023/02/18 18:25:23;;;;;;;1.17;0.50;;;;;;;9.88;62.56;97756.13;10418966;28;20479;-75
2023/02/18 18:30:46;;;;;;;0.90;0.32;;;;;;;9.92;62.46;97756.38;10445715;28;20446;-75
2023/02/18 18:36:07;;;;;;;1.00;0.30;;;;;;;9.96;63.07;97757.41;10432117;28;20495;-73
2023/02/18 18:41:29;;;;;;;0.90;0.32;;;;;;;9.91;63.31;97752.88;10417727;28;20518;-73
2023/02/18 18:46:50;;;;;;;1.00;0.40;;;;;;;9.82;63.08;97756.41;10431117;28;20044;-73
2023/02/18 18:52:11;;;;;;;0.82;0.40;;;;;;;9.72;63.73;97745.28;10416910;28;20072;-75
2023/02/18 18:57:32;;;;;;;0.88;0.20;;;;;;;9.63;63.58;97754.38;10416871;28;20048;-73
2023/02/18 19:02:53;;;;;;;1.45;0.30;;;;;;;9.64;63.92;97757.91;10430193;28;20110;-77
2023/02/18 19:08:19;;;;;;;2.28;0.70;;;;;;;9.55;64.28;97767.00;10430655;28;20045;-77
2023/02/18 19:13:40;;;;;;;3.20;0.70;;;;;;;9.61;64.53;97764.66;10431697;28;20450;-80
2023/02/18 19:19:01;;;;;;;1.70;0.50;;;;;;;9.72;64.22;97764.06;10444464;28;20475;-78
2023/02/18 19:24:21;;;;;;;0.93;0.30;;;;;;;9.89;64.14;97780.63;10430391;28;20059;-78
2023/02/18 19:29:42;;;;;;;1.23;0.57;;;;;;;9.96;64.18;97779.00;10417228;28;20041;-77
2023/02/18 19:35:03;;;;;;;1.65;0.40;;;;;;;9.92;64.07;97775.91;10444066;28;20098;-78
2023/02/18 19:40:26;;;;;;;1.15;0.45;;;;;;;9.87;64.45;97783.25;10416148;28;20068;-77
2023/02/18 19:45:47;;;;;;;1.90;0.35;;;;;;;9.91;64.65;97783.53;10429631;28;20045;-77
2023/02/18 19:51:08;;;;;;;0.95;0.40;;;;;;;9.93;64.64;97778.09;10429028;28;20048;-77
2023/02/18 19:56:30;;;;;;;2.55;0.40;;;;;;;9.91;64.84;97780.75;10429644;28;20037;-78
2023/02/18 20:01:51;;;;;;;1.83;0.32;;;;;;;9.93;65.13;97805.25;10429655;28;20107;-76
2023/02/18 20:07:12;;;;;;;0.80;0.30;;;;;;;9.91;65.21;97805.84;10429250;28;20490;-76
2023/02/18 20:12:33;;;;;;;2.33;0.30;;;;;;;9.98;65.25;97804.22;10429488;28;20049;-78
2023/02/18 20:17:54;;;;;;;1.33;0.40;;;;;;;10.07;65.18;97802.75;10444206;28;20048;-78
2023/02/18 20:23:16;;;;;;;0.95;0.40;;;;;;;10.11;65.38;97811.38;10428628;28;20049;-78
2023/02/18 20:28:37;;;;;;;1.35;0.40;;;;;;;10.12;65.69;97815.63;10441776;28;20056;-76
2023/02/18 20:33:59;;;;;;;1.10;0.30;;;;;;;10.14;65.92;97810.22;10441951;28;20051;-78
2023/02/18 20:39:21;;;;;;;1.23;0.40;;;;;;;10.16;66.02;97815.94;10428792;28;20045;-77
2023/02/18 20:44:43;;;;;;;1.05;0.30;;;;;;;10.02;65.90;97821.97;10414614;28;20508;-78
2023/02/18 20:50:04;;;;;;;1.45;0.50;;;;;;;9.86;66.09;97825.69;10455322;28;20445;-77
2023/02/18 20:55:25;;;;;;;1.40;0.40;;;;;;;9.92;66.27;97829.63;10456580;28;20041;-77
2023/02/18 21:01:02;;;;;;;1.60;0.60;;;;;;;10.04;66.06;97846.50;10484079;28;20056;-77
2023/02/18 21:06:24;;;;;;;1.30;0.50;;;;;;;10.06;66.01;97849.44;10478578;28;20115;-77
2023/02/18 21:11:45;;;;;;;1.13;0.40;;;;;;;10.10;65.85;97843.38;10478171;28;20037;-78
2023/02/18 21:17:06;;;;;;;2.45;0.32;;;;;;;10.09;65.49;97844.72;10480356;28;20180;-77
2023/02/18 21:22:29;;;;;;;1.08;0.30;;;;;;;10.08;66.05;97846.78;10479386;28;20044;-76
2023/02/18 21:27:50;;;;;;;1.27;0.40;;;;;;;10.10;65.65;97843.38;10490124;28;20044;-75
2023/02/18 21:33:12;;;;;;;0.73;0.30;;;;;;;10.10;65.84;97854.53;10475518;28;20037;-76
2023/02/18 21:38:33;;;;;;;1.35;0.40;;;;;;;10.00;66.08;97843.41;10461512;28;20071;-75
2023/02/18 21:43:54;;;;;;;1.13;0.70;;;;;;;9.72;66.74;97850.47;10489020;28;20047;-76
2023/02/18 21:49:15;;;;;;;0.90;0.43;;;;;;;9.49;67.38;97855.75;10460897;28;20041;-76
2023/02/18 21:54:38;;;;;;;0.93;0.30;;;;;;;9.44;67.54;97849.88;10462857;28;20509;-76
2023/02/18 22:00:03;;;;;;;1.23;0.50;;;;;;;9.53;68.08;97844.88;10472986;28;20056;-78
2023/02/18 22:05:39;;;;;;;1.48;0.40;;;;;;;9.58;67.88;97843.88;10472983;28;20055;-76
2023/02/18 22:11:03;;;;;;;0.95;0.40;;;;;;;9.54;68.01;97843.56;10473126;28;20045;-78
2023/02/18 22:16:27;;;;;;;1.52;0.40;;;;;;;9.49;68.17;97853.69;10472902;28;20048;-75
2023/02/18 22:21:48;;;;;;;1.30;0.40;;;;;;;9.48;68.05;97851.50;10474388;28;20048;-75
2023/02/18 22:27:09;;;;;;;0.93;0.40;;;;;;;9.48;68.70;97860.59;10473288;28;20475;-75
2023/02/18 22:32:30;;;;;;;1.20;0.43;;;;;;;9.48;69.24;97845.94;10487288;28;20421;-76
2023/02/18 22:37:52;;;;;;;1.33;0.30;;;;;;;9.46;69.12;97852.09;10472843;28;20094;-75
2023/02/18 22:43:13;;;;;;;1.73;0.47;;;;;;;9.34;69.14;97846.34;10472976;28;20055;-75
2023/02/18 22:48:34;;;;;;;1.35;0.35;;;;;;;9.27;69.39;97849.28;10472312;28;20090;-75
2023/02/18 22:53:56;;;;;;;0.98;0.30;;;;;;;9.27;69.91;97844.44;10486352;28;20048;-78
2023/02/18 22:59:18;;;;;;;0.80;0.30;;;;;;;9.27;69.97;97849.28;10472228;28;20532;-75
2023/02/18 23:04:40;;;;;;;1.55;0.40;;;;;;;9.21;69.85;97857.19;10506252;22;20052;-78
2023/02/18 23:10:01;;;;;;;1.05;0.20;;;;;;;9.23;70.96;97858.06;10457953;28;20048;-78
2023/02/18 23:15:22;;;;;;;0.95;0.30;;;;;;;9.27;71.34;97857.63;10485142;28;20505;-79
2023/02/18 23:26:24;;;;;;;1.30;0.40;;;;;;;9.27;72.05;97841.66;10486477;28;20409;-79
2023/02/18 23:31:45;;;;;;;2.05;0.80;;;;;;;9.26;73.19;97840.16;10472781;28;20045;-76
2023/02/18 23:37:06;;;;;;;1.40;0.40;;;;;;;9.22;73.49;97851.00;10498164;28;20052;-76
2023/02/18 23:42:28;;;;;;;0.80;0.40;;;;;;;9.21;73.14;97815.41;10484156;28;20068;-76
2023/02/18 23:47:48;;;;;;;0.82;0.25;;;;;;;9.21;72.85;97795.91;10483768;28;20047;-76
2023/02/18 23:53:09;;;;;;;3.72;0.40;;;;;;;9.21;73.23;97799.41;10497817;28;20040;-76
2023/02/18 23:58:30;;;;;;;0.95;0.22;;;;;;;9.10;74.50;97805.56;10483477;28;20041;-76
